sensor_id;sensor_type;location;lat;lon;timestamp;P1;durP1;ratioP1;P2;durP2;ratioP2
19691;SDS011;42748;50.016;19.890;2023-06-14T00:00:10;25.92;;;15.00;;
19691;SDS011;42748;50.016;19.890;2023-06-14T00:02:39;25.63;;;15.25;;
19691;SDS011;42748;50.016;19.890;2023-06-14T00:05:07;24.60;;;14.75;;
19691;SDS011;42748;50.016;19.890;2023-06-14T00:07:35;25.80;;;14.18;;
19691;SDS011;42748;50.016;19.890;2023-06-14T00:10:05;26.27;;;15.02;;
19691;SDS011;42748;50.016;19.890;2023-06-14T00:12:33;25.75;;;14.82;;
19691;SDS011;42748;50.016;19.890;2023-06-14T00:15:01;26.73;;;14.63;;
19691;SDS011;42748;50.016;19.890;2023-06-14T00:17:28;25.77;;;14.73;;
19691;SDS011;42748;50.016;19.890;2023-06-14T00:20:00;24.77;;;13.95;;
19691;SDS011;42748;50.016;19.890;2023-06-14T00:22:31;28.13;;;14.77;;
19691;SDS011;42748;50.016;19.890;2023-06-14T00:24:59;24.48;;;14.88;;
19691;SDS011;42748;50.016;19.890;2023-06-14T00:27:40;25.63;;;14.85;;
19691;SDS011;42748;50.016;19.890;2023-06-14T00:30:08;24.75;;;14.32;;
19691;SDS011;42748;50.016;19.890;2023-06-14T00:32:36;24.75;;;14.95;;
19691;SDS011;42748;50.016;19.890;2023-06-14T00:35:04;26.17;;;15.35;;
19691;SDS011;42748;50.016;19.890;2023-06-14T00:37:32;28.50;;;15.80;;
19691;SDS011;42748;50.016;19.890;2023-06-14T00:40:01;25.25;;;14.93;;
19691;SDS011;42748;50.016;19.890;2023-06-14T00:42:29;26.02;;;14.85;;
19691;SDS011;42748;50.016;19.890;2023-06-14T00:44:57;24.40;;;14.30;;
19691;SDS011;42748;50.016;19.890;2023-06-14T00:47:25;24.08;;;13.60;;
19691;SDS011;42748;50.016;19.890;2023-06-14T00:49:53;23.27;;;13.40;;
19691;SDS011;42748;50.016;19.890;2023-06-14T00:52:23;24.00;;;13.02;;
19691;SDS011;42748;50.016;19.890;2023-06-14T00:54:51;27.15;;;13.82;;
19691;SDS011;42748;50.016;19.890;2023-06-14T00:57:18;22.75;;;13.50;;
19691;SDS011;42748;50.016;19.890;2023-06-14T00:59:48;24.75;;;15.07;;
19691;SDS011;42748;50.016;19.890;2023-06-14T01:02:16;23.73;;;14.02;;
19691;SDS011;42748;50.016;19.890;2023-06-14T01:04:48;29.23;;;15.82;;
19691;SDS011;42748;50.016;19.890;2023-06-14T01:15:01;32.03;;;16.88;;
19691;SDS011;42748;50.016;19.890;2023-06-14T01:17:29;28.23;;;15.18;;
19691;SDS011;42748;50.016;19.890;2023-06-14T01:19:59;33.35;;;16.50;;
19691;SDS011;42748;50.016;19.890;2023-06-14T01:22:30;31.48;;;15.88;;
19691;SDS011;42748;50.016;19.890;2023-06-14T01:24:58;26.02;;;14.50;;
19691;SDS011;42748;50.016;19.890;2023-06-14T01:27:27;24.35;;;14.05;;
19691;SDS011;42748;50.016;19.890;2023-06-14T01:29:55;26.98;;;14.88;;
19691;SDS011;42748;50.016;19.890;2023-06-14T01:32:24;23.75;;;13.98;;
19691;SDS011;42748;50.016;19.890;2023-06-14T01:34:54;26.55;;;14.85;;
19691;SDS011;42748;50.016;19.890;2023-06-14T01:37:21;25.98;;;15.35;;
19691;SDS011;42748;50.016;19.890;2023-06-14T01:39:49;32.55;;;17.25;;
19691;SDS011;42748;50.016;19.890;2023-06-14T01:42:18;38.28;;;18.95;;
19691;SDS011;42748;50.016;19.890;2023-06-14T01:44:46;41.50;;;19.50;;
19691;SDS011;42748;50.016;19.890;2023-06-14T01:47:14;41.90;;;19.55;;
19691;SDS011;42748;50.016;19.890;2023-06-14T01:49:42;38.97;;;20.17;;
19691;SDS011;42748;50.016;19.890;2023-06-14T01:52:10;47.40;;;21.63;;
19691;SDS011;42748;50.016;19.890;2023-06-14T01:54:37;43.60;;;20.02;;
19691;SDS011;42748;50.016;19.890;2023-06-14T01:57:08;39.10;;;19.52;;
19691;SDS011;42748;50.016;19.890;2023-06-14T01:59:37;39.05;;;20.88;;
19691;SDS011;42748;50.016;19.890;2023-06-14T02:02:05;39.50;;;19.30;;
19691;SDS011;42748;50.016;19.890;2023-06-14T02:04:33;41.05;;;18.42;;
19691;SDS011;42748;50.016;19.890;2023-06-14T02:07:01;43.03;;;20.45;;
19691;SDS011;42748;50.016;19.890;2023-06-14T02:09:28;40.47;;;19.27;;
19691;SDS011;42748;50.016;19.890;2023-06-14T02:11:56;42.45;;;19.70;;
19691;SDS011;42748;50.016;19.890;2023-06-14T02:14:26;46.70;;;20.50;;
19691;SDS011;42748;50.016;19.890;2023-06-14T02:16:54;49.13;;;21.83;;
19691;SDS011;42748;50.016;19.890;2023-06-14T02:19:21;43.03;;;20.20;;
19691;SDS011;42748;50.016;19.890;2023-06-14T02:21:49;46.33;;;21.80;;
19691;SDS011;42748;50.016;19.890;2023-06-14T02:24:17;45.05;;;20.73;;
19691;SDS011;42748;50.016;19.890;2023-06-14T02:26:45;48.70;;;21.45;;
19691;SDS011;42748;50.016;19.890;2023-06-14T02:29:14;44.50;;;20.67;;
19691;SDS011;42748;50.016;19.890;2023-06-14T02:31:42;46.67;;;20.00;;
19691;SDS011;42748;50.016;19.890;2023-06-14T02:34:11;48.08;;;21.33;;
19691;SDS011;42748;50.016;19.890;2023-06-14T02:36:39;50.55;;;21.42;;
19691;SDS011;42748;50.016;19.890;2023-06-14T02:39:09;52.90;;;20.70;;
19691;SDS011;42748;50.016;19.890;2023-06-14T02:41:37;54.45;;;22.58;;
19691;SDS011;42748;50.016;19.890;2023-06-14T02:44:05;47.67;;;21.52;;
19691;SDS011;42748;50.016;19.890;2023-06-14T02:46:33;47.85;;;21.60;;
19691;SDS011;42748;50.016;19.890;2023-06-14T02:49:02;47.88;;;21.40;;
19691;SDS011;42748;50.016;19.890;2023-06-14T02:51:30;47.80;;;20.98;;
19691;SDS011;42748;50.016;19.890;2023-06-14T02:53:57;52.30;;;21.63;;
19691;SDS011;42748;50.016;19.890;2023-06-14T02:56:25;49.78;;;20.75;;
19691;SDS011;42748;50.016;19.890;2023-06-14T02:58:55;46.90;;;19.88;;
19691;SDS011;42748;50.016;19.890;2023-06-14T03:01:25;43.40;;;20.08;;
19691;SDS011;42748;50.016;19.890;2023-06-14T03:04:04;45.75;;;19.15;;
19691;SDS011;42748;50.016;19.890;2023-06-14T03:06:36;39.45;;;20.00;;
19691;SDS011;42748;50.016;19.890;2023-06-14T03:09:04;48.97;;;20.50;;
19691;SDS011;42748;50.016;19.890;2023-06-14T03:11:35;47.08;;;20.88;;
19691;SDS011;42748;50.016;19.890;2023-06-14T03:14:03;52.22;;;21.15;;
19691;SDS011;42748;50.016;19.890;2023-06-14T03:16:31;42.08;;;20.65;;
19691;SDS011;42748;50.016;19.890;2023-06-14T03:19:00;46.60;;;19.88;;
19691;SDS011;42748;50.016;19.890;2023-06-14T03:21:30;46.95;;;19.98;;
19691;SDS011;42748;50.016;19.890;2023-06-14T03:24:02;37.72;;;18.70;;
19691;SDS011;42748;50.016;19.890;2023-06-14T03:26:31;44.05;;;19.77;;
19691;SDS011;42748;50.016;19.890;2023-06-14T03:29:01;40.50;;;18.73;;
19691;SDS011;42748;50.016;19.890;2023-06-14T03:31:29;39.88;;;18.30;;
19691;SDS011;42748;50.016;19.890;2023-06-14T03:34:02;40.63;;;18.67;;
19691;SDS011;42748;50.016;19.890;2023-06-14T03:36:30;38.28;;;18.30;;
19691;SDS011;42748;50.016;19.890;2023-06-14T03:39:00;41.63;;;19.27;;
19691;SDS011;42748;50.016;19.890;2023-06-14T03:41:28;51.83;;;21.38;;
19691;SDS011;42748;50.016;19.890;2023-06-14T03:43:56;46.35;;;21.00;;
19691;SDS011;42748;50.016;19.890;2023-06-14T03:46:24;51.67;;;21.95;;
19691;SDS011;42748;50.016;19.890;2023-06-14T03:48:52;53.08;;;21.73;;
19691;SDS011;42748;50.016;19.890;2023-06-14T03:51:20;52.75;;;21.60;;
19691;SDS011;42748;50.016;19.890;2023-06-14T03:53:49;49.03;;;21.30;;
19691;SDS011;42748;50.016;19.890;2023-06-14T03:56:37;45.38;;;20.90;;
19691;SDS011;42748;50.016;19.890;2023-06-14T03:59:09;49.33;;;20.98;;
19691;SDS011;42748;50.016;19.890;2023-06-14T04:01:37;50.70;;;21.15;;
19691;SDS011;42748;50.016;19.890;2023-06-14T04:04:14;50.22;;;21.75;;
19691;SDS011;42748;50.016;19.890;2023-06-14T04:06:45;51.15;;;20.80;;
19691;SDS011;42748;50.016;19.890;2023-06-14T04:09:15;47.65;;;20.55;;
19691;SDS011;42748;50.016;19.890;2023-06-14T04:11:42;47.08;;;19.73;;
19691;SDS011;42748;50.016;19.890;2023-06-14T04:14:10;46.92;;;20.08;;
19691;SDS011;42748;50.016;19.890;2023-06-14T04:16:38;41.47;;;20.25;;
19691;SDS011;42748;50.016;19.890;2023-06-14T04:19:06;50.92;;;20.90;;
19691;SDS011;42748;50.016;19.890;2023-06-14T04:21:33;49.75;;;21.75;;
19691;SDS011;42748;50.016;19.890;2023-06-14T04:24:03;48.10;;;20.92;;
19691;SDS011;42748;50.016;19.890;2023-06-14T04:26:32;45.55;;;21.85;;
19691;SDS011;42748;50.016;19.890;2023-06-14T04:29:01;51.13;;;22.45;;
19691;SDS011;42748;50.016;19.890;2023-06-14T04:31:32;50.55;;;21.65;;
19691;SDS011;42748;50.016;19.890;2023-06-14T04:34:01;52.17;;;21.08;;
19691;SDS011;42748;50.016;19.890;2023-06-14T04:36:34;46.70;;;21.10;;
19691;SDS011;42748;50.016;19.890;2023-06-14T04:39:05;48.90;;;21.63;;
19691;SDS011;42748;50.016;19.890;2023-06-14T04:41:33;57.13;;;23.15;;
19691;SDS011;42748;50.016;19.890;2023-06-14T04:44:02;57.22;;;23.33;;
19691;SDS011;42748;50.016;19.890;2023-06-14T04:46:36;65.50;;;23.38;;
19691;SDS011;42748;50.016;19.890;2023-06-14T04:49:21;66.70;;;24.85;;
19691;SDS011;42748;50.016;19.890;2023-06-14T04:51:53;73.75;;;23.48;;
19691;SDS011;42748;50.016;19.890;2023-06-14T04:54:26;61.08;;;25.02;;
19691;SDS011;42748;50.016;19.890;2023-06-14T04:56:53;73.13;;;26.52;;
19691;SDS011;42748;50.016;19.890;2023-06-14T04:59:24;68.57;;;24.65;;
19691;SDS011;42748;50.016;19.890;2023-06-14T05:01:52;73.68;;;26.55;;
19691;SDS011;42748;50.016;19.890;2023-06-14T05:04:22;65.07;;;25.73;;
19691;SDS011;42748;50.016;19.890;2023-06-14T05:06:49;71.28;;;26.73;;
19691;SDS011;42748;50.016;19.890;2023-06-14T05:09:18;67.38;;;26.65;;
19691;SDS011;42748;50.016;19.890;2023-06-14T05:11:46;81.95;;;27.17;;
19691;SDS011;42748;50.016;19.890;2023-06-14T05:14:14;72.95;;;26.20;;
19691;SDS011;42748;50.016;19.890;2023-06-14T05:16:42;74.05;;;26.58;;
19691;SDS011;42748;50.016;19.890;2023-06-14T05:19:09;75.25;;;26.30;;
19691;SDS011;42748;50.016;19.890;2023-06-14T05:21:37;65.72;;;26.40;;
19691;SDS011;42748;50.016;19.890;2023-06-14T05:24:09;68.88;;;25.85;;
19691;SDS011;42748;50.016;19.890;2023-06-14T05:26:37;68.32;;;26.33;;
19691;SDS011;42748;50.016;19.890;2023-06-14T05:29:05;70.35;;;26.02;;
19691;SDS011;42748;50.016;19.890;2023-06-14T05:31:33;59.30;;;25.17;;
19691;SDS011;42748;50.016;19.890;2023-06-14T05:34:01;72.68;;;26.92;;
19691;SDS011;42748;50.016;19.890;2023-06-14T05:36:29;71.00;;;26.35;;
19691;SDS011;42748;50.016;19.890;2023-06-14T05:38:57;63.17;;;26.13;;
19691;SDS011;42748;50.016;19.890;2023-06-14T05:41:26;65.40;;;25.08;;
19691;SDS011;42748;50.016;19.890;2023-06-14T05:43:55;64.68;;;23.60;;
19691;SDS011;42748;50.016;19.890;2023-06-14T05:46:23;70.30;;;25.20;;
19691;SDS011;42748;50.016;19.890;2023-06-14T05:48:54;61.80;;;24.65;;
19691;SDS011;42748;50.016;19.890;2023-06-14T05:51:22;56.53;;;22.88;;
19691;SDS011;42748;50.016;19.890;2023-06-14T05:53:52;63.25;;;24.15;;
19691;SDS011;42748;50.016;19.890;2023-06-14T05:56:21;54.50;;;24.02;;
19691;SDS011;42748;50.016;19.890;2023-06-14T05:58:49;53.80;;;22.52;;
19691;SDS011;42748;50.016;19.890;2023-06-14T06:01:17;51.40;;;22.83;;
19691;SDS011;42748;50.016;19.890;2023-06-14T06:03:45;50.08;;;21.77;;
19691;SDS011;42748;50.016;19.890;2023-06-14T06:06:13;51.97;;;22.10;;
19691;SDS011;42748;50.016;19.890;2023-06-14T06:08:41;50.35;;;21.42;;
19691;SDS011;42748;50.016;19.890;2023-06-14T06:11:09;49.83;;;22.48;;
19691;SDS011;42748;50.016;19.890;2023-06-14T06:13:37;47.50;;;21.27;;
19691;SDS011;42748;50.016;19.890;2023-06-14T06:16:05;46.78;;;20.95;;
19691;SDS011;42748;50.016;19.890;2023-06-14T06:18:33;46.25;;;20.95;;
19691;SDS011;42748;50.016;19.890;2023-06-14T06:21:01;49.85;;;21.67;;
19691;SDS011;42748;50.016;19.890;2023-06-14T06:23:30;45.38;;;21.08;;
19691;SDS011;42748;50.016;19.890;2023-06-14T06:25:58;51.03;;;23.02;;
19691;SDS011;42748;50.016;19.890;2023-06-14T06:28:26;46.15;;;21.70;;
19691;SDS011;42748;50.016;19.890;2023-06-14T06:30:54;49.80;;;22.02;;
19691;SDS011;42748;50.016;19.890;2023-06-14T06:33:22;46.25;;;21.85;;
19691;SDS011;42748;50.016;19.890;2023-06-14T06:35:50;43.03;;;20.98;;
19691;SDS011;42748;50.016;19.890;2023-06-14T06:38:17;46.67;;;21.33;;
19691;SDS011;42748;50.016;19.890;2023-06-14T06:40:45;50.35;;;22.25;;
19691;SDS011;42748;50.016;19.890;2023-06-14T06:43:13;47.75;;;21.83;;
19691;SDS011;42748;50.016;19.890;2023-06-14T06:45:46;46.85;;;21.15;;
19691;SDS011;42748;50.016;19.890;2023-06-14T06:48:14;46.03;;;22.33;;
19691;SDS011;42748;50.016;19.890;2023-06-14T06:50:42;42.67;;;20.40;;
19691;SDS011;42748;50.016;19.890;2023-06-14T06:53:10;46.00;;;21.02;;
19691;SDS011;42748;50.016;19.890;2023-06-14T06:55:42;42.13;;;20.42;;
19691;SDS011;42748;50.016;19.890;2023-06-14T06:58:09;46.08;;;19.83;;
19691;SDS011;42748;50.016;19.890;2023-06-14T07:00:37;42.08;;;20.00;;
19691;SDS011;42748;50.016;19.890;2023-06-14T07:03:05;43.40;;;19.75;;
19691;SDS011;42748;50.016;19.890;2023-06-14T07:05:33;41.45;;;19.70;;
19691;SDS011;42748;50.016;19.890;2023-06-14T07:08:01;42.65;;;18.25;;
19691;SDS011;42748;50.016;19.890;2023-06-14T07:10:29;44.55;;;20.55;;
19691;SDS011;42748;50.016;19.890;2023-06-14T07:12:57;43.75;;;19.17;;
19691;SDS011;42748;50.016;19.890;2023-06-14T07:15:24;40.45;;;18.77;;
19691;SDS011;42748;50.016;19.890;2023-06-14T07:17:52;34.90;;;17.20;;
19691;SDS011;42748;50.016;19.890;2023-06-14T07:20:20;36.50;;;17.17;;
19691;SDS011;42748;50.016;19.890;2023-06-14T07:22:48;41.75;;;18.33;;
19691;SDS011;42748;50.016;19.890;2023-06-14T07:25:16;37.85;;;16.73;;
19691;SDS011;42748;50.016;19.890;2023-06-14T07:27:49;34.30;;;17.52;;
19691;SDS011;42748;50.016;19.890;2023-06-14T07:30:16;33.45;;;17.45;;
19691;SDS011;42748;50.016;19.890;2023-06-14T07:32:44;40.03;;;18.05;;
19691;SDS011;42748;50.016;19.890;2023-06-14T07:35:12;34.42;;;17.75;;
19691;SDS011;42748;50.016;19.890;2023-06-14T07:37:40;37.03;;;17.52;;
19691;SDS011;42748;50.016;19.890;2023-06-14T07:40:08;40.78;;;19.63;;
19691;SDS011;42748;50.016;19.890;2023-06-14T07:42:37;39.85;;;19.65;;
19691;SDS011;42748;50.016;19.890;2023-06-14T07:45:05;37.55;;;18.70;;
19691;SDS011;42748;50.016;19.890;2023-06-14T07:47:33;43.97;;;19.77;;
19691;SDS011;42748;50.016;19.890;2023-06-14T07:50:01;39.42;;;18.83;;
19691;SDS011;42748;50.016;19.890;2023-06-14T07:52:30;34.97;;;18.23;;
19691;SDS011;42748;50.016;19.890;2023-06-14T07:54:58;38.67;;;17.90;;
19691;SDS011;42748;50.016;19.890;2023-06-14T07:57:26;31.70;;;16.55;;
19691;SDS011;42748;50.016;19.890;2023-06-14T07:59:56;29.65;;;15.60;;
19691;SDS011;42748;50.016;19.890;2023-06-14T08:02:24;26.98;;;14.60;;
19691;SDS011;42748;50.016;19.890;2023-06-14T08:04:52;31.95;;;15.50;;
19691;SDS011;42748;50.016;19.890;2023-06-14T08:07:20;30.25;;;15.40;;
19691;SDS011;42748;50.016;19.890;2023-06-14T08:09:48;26.67;;;14.65;;
19691;SDS011;42748;50.016;19.890;2023-06-14T08:12:16;29.45;;;14.20;;
19691;SDS011;42748;50.016;19.890;2023-06-14T08:14:44;30.48;;;16.23;;
19691;SDS011;42748;50.016;19.890;2023-06-14T08:17:14;33.47;;;16.02;;
19691;SDS011;42748;50.016;19.890;2023-06-14T08:19:42;26.98;;;14.00;;
19691;SDS011;42748;50.016;19.890;2023-06-14T08:22:10;28.17;;;14.95;;
19691;SDS011;42748;50.016;19.890;2023-06-14T08:24:39;27.42;;;15.00;;
19691;SDS011;42748;50.016;19.890;2023-06-14T08:27:07;27.55;;;14.55;;
19691;SDS011;42748;50.016;19.890;2023-06-14T08:29:35;23.17;;;14.05;;
19691;SDS011;42748;50.016;19.890;2023-06-14T08:32:05;24.45;;;13.50;;
19691;SDS011;42748;50.016;19.890;2023-06-14T08:34:33;23.35;;;13.48;;
19691;SDS011;42748;50.016;19.890;2023-06-14T08:37:01;23.45;;;12.70;;
19691;SDS011;42748;50.016;19.890;2023-06-14T08:39:28;24.88;;;13.18;;
19691;SDS011;42748;50.016;19.890;2023-06-14T08:41:56;23.48;;;12.63;;
19691;SDS011;42748;50.016;19.890;2023-06-14T08:44:24;22.00;;;12.13;;
19691;SDS011;42748;50.016;19.890;2023-06-14T08:46:52;22.05;;;11.57;;
19691;SDS011;42748;50.016;19.890;2023-06-14T08:49:22;18.73;;;11.35;;
19691;SDS011;42748;50.016;19.890;2023-06-14T08:51:52;20.60;;;11.48;;
19691;SDS011;42748;50.016;19.890;2023-06-14T08:54:28;17.38;;;9.85;;
19691;SDS011;42748;50.016;19.890;2023-06-14T08:56:57;16.85;;;10.02;;
19691;SDS011;42748;50.016;19.890;2023-06-14T08:59:28;18.35;;;10.02;;
19691;SDS011;42748;50.016;19.890;2023-06-14T09:01:58;11.55;;;7.22;;
19691;SDS011;42748;50.016;19.890;2023-06-14T09:04:38;7.30;;;4.40;;
19691;SDS011;42748;50.016;19.890;2023-06-14T09:07:06;7.80;;;3.67;;
19691;SDS011;42748;50.016;19.890;2023-06-14T09:09:37;6.35;;;3.70;;
19691;SDS011;42748;50.016;19.890;2023-06-14T09:12:06;6.22;;;4.40;;
19691;SDS011;42748;50.016;19.890;2023-06-14T09:14:37;5.45;;;4.28;;
19691;SDS011;42748;50.016;19.890;2023-06-14T09:17:06;5.32;;;4.68;;
19691;SDS011;42748;50.016;19.890;2023-06-14T09:19:34;5.60;;;4.05;;
19691;SDS011;42748;50.016;19.890;2023-06-14T09:22:03;6.18;;;3.92;;
19691;SDS011;42748;50.016;19.890;2023-06-14T09:24:31;5.40;;;4.05;;
19691;SDS011;42748;50.016;19.890;2023-06-14T09:26:59;7.97;;;4.53;;
19691;SDS011;42748;50.016;19.890;2023-06-14T09:29:26;5.95;;;4.63;;
19691;SDS011;42748;50.016;19.890;2023-06-14T09:31:54;6.90;;;4.50;;
19691;SDS011;42748;50.016;19.890;2023-06-14T09:34:22;7.85;;;4.53;;
19691;SDS011;42748;50.016;19.890;2023-06-14T09:36:49;9.88;;;4.80;;
19691;SDS011;42748;50.016;19.890;2023-06-14T09:39:18;7.18;;;4.90;;
19691;SDS011;42748;50.016;19.890;2023-06-14T09:41:49;9.45;;;5.57;;
19691;SDS011;42748;50.016;19.890;2023-06-14T09:44:16;9.40;;;5.78;;
19691;SDS011;42748;50.016;19.890;2023-06-14T09:46:47;8.75;;;5.45;;
19691;SDS011;42748;50.016;19.890;2023-06-14T09:49:15;7.55;;;5.75;;
19691;SDS011;42748;50.016;19.890;2023-06-14T09:51:49;8.35;;;6.00;;
19691;SDS011;42748;50.016;19.890;2023-06-14T09:54:20;7.97;;;6.20;;
19691;SDS011;42748;50.016;19.890;2023-06-14T09:56:49;8.32;;;6.63;;
19691;SDS011;42748;50.016;19.890;2023-06-14T09:59:22;10.35;;;7.20;;
19691;SDS011;42748;50.016;19.890;2023-06-14T10:01:57;11.60;;;7.78;;
19691;SDS011;42748;50.016;19.890;2023-06-14T10:04:27;11.85;;;8.23;;
19691;SDS011;42748;50.016;19.890;2023-06-14T10:06:55;12.27;;;7.68;;
19691;SDS011;42748;50.016;19.890;2023-06-14T10:09:22;11.98;;;7.88;;
19691;SDS011;42748;50.016;19.890;2023-06-14T10:11:51;12.27;;;7.80;;
19691;SDS011;42748;50.016;19.890;2023-06-14T10:14:19;11.73;;;7.53;;
19691;SDS011;42748;50.016;19.890;2023-06-14T10:16:49;10.50;;;7.65;;
19691;SDS011;42748;50.016;19.890;2023-06-14T10:19:21;14.70;;;7.38;;
19691;SDS011;42748;50.016;19.890;2023-06-14T10:21:54;10.55;;;7.20;;
19691;SDS011;42748;50.016;19.890;2023-06-14T10:24:33;9.70;;;6.90;;
19691;SDS011;42748;50.016;19.890;2023-06-14T10:27:01;11.23;;;7.60;;
19691;SDS011;42748;50.016;19.890;2023-06-14T10:29:29;9.18;;;7.13;;
19691;SDS011;42748;50.016;19.890;2023-06-14T10:32:00;13.13;;;7.80;;
19691;SDS011;42748;50.016;19.890;2023-06-14T10:34:30;14.27;;;8.70;;
19691;SDS011;42748;50.016;19.890;2023-06-14T10:37:02;12.27;;;8.70;;
19691;SDS011;42748;50.016;19.890;2023-06-14T10:39:30;12.40;;;9.02;;
19691;SDS011;42748;50.016;19.890;2023-06-14T10:41:58;15.43;;;9.00;;
19691;SDS011;42748;50.016;19.890;2023-06-14T10:44:39;12.63;;;9.10;;
19691;SDS011;42748;50.016;19.890;2023-06-14T10:47:11;13.95;;;8.20;;
19691;SDS011;42748;50.016;19.890;2023-06-14T10:49:50;11.18;;;7.78;;
19691;SDS011;42748;50.016;19.890;2023-06-14T10:52:21;12.40;;;8.00;;
19691;SDS011;42748;50.016;19.890;2023-06-14T10:55:03;10.20;;;6.72;;
19691;SDS011;42748;50.016;19.890;2023-06-14T10:57:31;10.80;;;7.13;;
19691;SDS011;42748;50.016;19.890;2023-06-14T11:00:14;10.20;;;6.45;;
19691;SDS011;42748;50.016;19.890;2023-06-14T11:02:48;14.60;;;8.93;;
19691;SDS011;42748;50.016;19.890;2023-06-14T11:05:20;13.00;;;7.80;;
19691;SDS011;42748;50.016;19.890;2023-06-14T11:10:39;11.27;;;7.95;;
19691;SDS011;42748;50.016;19.890;2023-06-14T11:13:08;10.27;;;7.60;;
19691;SDS011;42748;50.016;19.890;2023-06-14T11:15:37;13.18;;;8.48;;
19691;SDS011;42748;50.016;19.890;2023-06-14T11:18:06;11.88;;;8.18;;
19691;SDS011;42748;50.016;19.890;2023-06-14T11:20:34;12.25;;;7.88;;
19691;SDS011;42748;50.016;19.890;2023-06-14T11:23:09;11.95;;;7.32;;
19691;SDS011;42748;50.016;19.890;2023-06-14T11:25:36;8.75;;;7.13;;
19691;SDS011;42748;50.016;19.890;2023-06-14T11:28:04;11.98;;;7.60;;
19691;SDS011;42748;50.016;19.890;2023-06-14T11:30:32;9.68;;;7.63;;
19691;SDS011;42748;50.016;19.890;2023-06-14T11:33:01;9.63;;;7.53;;
19691;SDS011;42748;50.016;19.890;2023-06-14T11:35:28;10.65;;;7.53;;
19691;SDS011;42748;50.016;19.890;2023-06-14T11:37:56;9.40;;;7.70;;
19691;SDS011;42748;50.016;19.890;2023-06-14T11:40:27;11.82;;;8.45;;
19691;SDS011;42748;50.016;19.890;2023-06-14T11:42:59;10.82;;;8.68;;
19691;SDS011;42748;50.016;19.890;2023-06-14T11:45:27;10.32;;;8.68;;
19691;SDS011;42748;50.016;19.890;2023-06-14T11:47:55;12.40;;;9.02;;
19691;SDS011;42748;50.016;19.890;2023-06-14T11:50:24;10.23;;;8.57;;
19691;SDS011;42748;50.016;19.890;2023-06-14T11:52:55;11.13;;;7.93;;
19691;SDS011;42748;50.016;19.890;2023-06-14T11:55:23;10.95;;;7.78;;
19691;SDS011;42748;50.016;19.890;2023-06-14T11:57:53;9.80;;;7.82;;
19691;SDS011;42748;50.016;19.890;2023-06-14T12:00:25;9.55;;;7.60;;
19691;SDS011;42748;50.016;19.890;2023-06-14T12:02:57;9.88;;;7.30;;
19691;SDS011;42748;50.016;19.890;2023-06-14T12:05:27;11.02;;;6.97;;
19691;SDS011;42748;50.016;19.890;2023-06-14T12:07:58;8.35;;;7.10;;
19691;SDS011;42748;50.016;19.890;2023-06-14T12:10:27;8.85;;;6.90;;
19691;SDS011;42748;50.016;19.890;2023-06-14T12:12:58;10.25;;;7.65;;
19691;SDS011;42748;50.016;19.890;2023-06-14T12:15:29;10.15;;;7.82;;
19691;SDS011;42748;50.016;19.890;2023-06-14T12:17:58;14.50;;;9.20;;
19691;SDS011;42748;50.016;19.890;2023-06-14T12:20:30;11.77;;;9.00;;
19691;SDS011;42748;50.016;19.890;2023-06-14T12:22:59;9.65;;;7.88;;
19691;SDS011;42748;50.016;19.890;2023-06-14T12:27:58;8.25;;;7.00;;
19691;SDS011;42748;50.016;19.890;2023-06-14T12:30:26;13.23;;;8.60;;
19691;SDS011;42748;50.016;19.890;2023-06-14T12:32:53;10.27;;;7.35;;
19691;SDS011;42748;50.016;19.890;2023-06-14T12:35:22;9.15;;;6.57;;
19691;SDS011;42748;50.016;19.890;2023-06-14T12:37:49;10.20;;;6.70;;
19691;SDS011;42748;50.016;19.890;2023-06-14T12:40:21;10.95;;;7.03;;
19691;SDS011;42748;50.016;19.890;2023-06-14T12:42:49;11.95;;;7.05;;
19691;SDS011;42748;50.016;19.890;2023-06-14T12:45:16;7.93;;;6.07;;
19691;SDS011;42748;50.016;19.890;2023-06-14T12:47:44;8.85;;;6.35;;
19691;SDS011;42748;50.016;19.890;2023-06-14T12:50:12;8.38;;;5.22;;
19691;SDS011;42748;50.016;19.890;2023-06-14T12:52:41;10.07;;;5.82;;
19691;SDS011;42748;50.016;19.890;2023-06-14T12:55:09;7.95;;;5.82;;
19691;SDS011;42748;50.016;19.890;2023-06-14T12:57:37;7.93;;;5.63;;
19691;SDS011;42748;50.016;19.890;2023-06-14T13:00:05;7.82;;;5.60;;
19691;SDS011;42748;50.016;19.890;2023-06-14T13:02:34;7.55;;;5.65;;
19691;SDS011;42748;50.016;19.890;2023-06-14T13:05:02;12.35;;;6.63;;
19691;SDS011;42748;50.016;19.890;2023-06-14T13:07:31;9.75;;;6.40;;
19691;SDS011;42748;50.016;19.890;2023-06-14T13:09:58;9.90;;;6.25;;
19691;SDS011;42748;50.016;19.890;2023-06-14T13:12:26;7.68;;;5.60;;
19691;SDS011;42748;50.016;19.890;2023-06-14T13:14:54;10.18;;;5.75;;
19691;SDS011;42748;50.016;19.890;2023-06-14T13:17:21;8.27;;;6.07;;
19691;SDS011;42748;50.016;19.890;2023-06-14T13:19:49;8.95;;;5.50;;
19691;SDS011;42748;50.016;19.890;2023-06-14T13:22:17;7.28;;;5.10;;
19691;SDS011;42748;50.016;19.890;2023-06-14T13:24:44;8.18;;;5.50;;
19691;SDS011;42748;50.016;19.890;2023-06-14T13:27:12;8.32;;;5.57;;
19691;SDS011;42748;50.016;19.890;2023-06-14T13:29:40;10.82;;;5.50;;
19691;SDS011;42748;50.016;19.890;2023-06-14T13:32:08;7.20;;;5.43;;
19691;SDS011;42748;50.016;19.890;2023-06-14T13:34:36;9.27;;;5.93;;
19691;SDS011;42748;50.016;19.890;2023-06-14T13:37:04;7.43;;;4.93;;
19691;SDS011;42748;50.016;19.890;2023-06-14T13:39:31;7.25;;;5.18;;
19691;SDS011;42748;50.016;19.890;2023-06-14T13:41:59;10.98;;;5.05;;
19691;SDS011;42748;50.016;19.890;2023-06-14T13:44:27;9.10;;;4.97;;
19691;SDS011;42748;50.016;19.890;2023-06-14T13:46:55;8.25;;;5.40;;
19691;SDS011;42748;50.016;19.890;2023-06-14T13:49:23;7.55;;;5.47;;
19691;SDS011;42748;50.016;19.890;2023-06-14T13:51:51;9.93;;;5.18;;
19691;SDS011;42748;50.016;19.890;2023-06-14T13:54:19;6.15;;;5.00;;
19691;SDS011;42748;50.016;19.890;2023-06-14T13:56:47;8.57;;;5.35;;
19691;SDS011;42748;50.016;19.890;2023-06-14T13:59:15;9.65;;;5.50;;
19691;SDS011;42748;50.016;19.890;2023-06-14T14:01:43;10.55;;;5.55;;
19691;SDS011;42748;50.016;19.890;2023-06-14T14:04:11;7.18;;;5.15;;
19691;SDS011;42748;50.016;19.890;2023-06-14T14:06:39;11.32;;;5.78;;
19691;SDS011;42748;50.016;19.890;2023-06-14T14:09:07;8.90;;;5.47;;
19691;SDS011;42748;50.016;19.890;2023-06-14T14:11:36;6.60;;;5.00;;
19691;SDS011;42748;50.016;19.890;2023-06-14T14:14:04;7.38;;;5.10;;
19691;SDS011;42748;50.016;19.890;2023-06-14T14:16:32;7.28;;;5.10;;
19691;SDS011;42748;50.016;19.890;2023-06-14T14:19:02;7.47;;;5.13;;
19691;SDS011;42748;50.016;19.890;2023-06-14T14:21:30;6.78;;;5.15;;
19691;SDS011;42748;50.016;19.890;2023-06-14T14:23:59;7.97;;;4.55;;
19691;SDS011;42748;50.016;19.890;2023-06-14T14:26:27;7.55;;;5.15;;
19691;SDS011;42748;50.016;19.890;2023-06-14T14:28:54;7.43;;;5.20;;
19691;SDS011;42748;50.016;19.890;2023-06-14T14:31:22;10.32;;;5.15;;
19691;SDS011;42748;50.016;19.890;2023-06-14T14:33:50;8.27;;;5.47;;
19691;SDS011;42748;50.016;19.890;2023-06-14T14:36:18;7.70;;;4.88;;
19691;SDS011;42748;50.016;19.890;2023-06-14T14:38:46;10.30;;;5.70;;